createdAt,value
2022-09-14T00:01:48.990Z,3.40
2022-09-14T00:04:23.358Z,3.55
2022-09-14T00:06:57.215Z,3.35
2022-09-14T00:09:31.213Z,3.20
2022-09-14T00:12:05.596Z,3.65
2022-09-14T00:14:40.681Z,3.45
2022-09-14T00:17:15.904Z,3.50
2022-09-14T00:19:49.925Z,3.10
2022-09-14T00:22:23.827Z,3.38
2022-09-14T00:27:31.272Z,3.33
2022-09-14T00:30:05.906Z,3.10
2022-09-14T00:32:41.234Z,3.17
2022-09-14T00:35:15.146Z,3.47
2022-09-14T00:37:51.578Z,2.90
2022-09-14T00:40:25.824Z,3.60
2022-09-14T00:42:59.697Z,3.15
2022-09-14T00:48:09.628Z,3.00
2022-09-14T00:50:43.992Z,3.50
2022-09-14T00:53:18.084Z,3.40
2022-09-14T00:55:54.172Z,3.00
2022-09-14T00:58:28.336Z,2.78
2022-09-14T01:01:02.608Z,2.42
2022-09-14T01:03:39.436Z,3.28
2022-09-14T01:06:20.096Z,3.05
2022-09-14T01:09:16.416Z,2.70
2022-09-14T01:12:06.275Z,3.05
2022-09-14T01:14:46.080Z,3.17
2022-09-14T01:17:26.951Z,2.40
2022-09-14T01:20:17.033Z,3.47
2022-09-14T01:22:54.657Z,3.50
2022-09-14T01:26:01.474Z,2.75
2022-09-14T01:28:42.601Z,2.97
2022-09-14T01:31:19.873Z,3.10
2022-09-14T01:33:58.949Z,2.90
2022-09-14T01:36:36.162Z,2.75
2022-09-14T01:39:11.237Z,2.83
2022-09-14T01:41:47.936Z,2.88
2022-09-14T01:44:26.850Z,2.80
2022-09-14T01:47:06.386Z,2.70
2022-09-14T01:49:44.186Z,2.30
2022-09-14T01:52:21.727Z,3.00
2022-09-14T01:54:59.688Z,2.65
2022-09-14T01:57:38.694Z,2.97
2022-09-14T02:00:18.071Z,3.42
2022-09-14T02:02:56.513Z,2.90
2022-09-14T02:05:35.558Z,2.75
2022-09-14T02:08:09.698Z,2.90
2022-09-14T02:10:43.653Z,2.90
2022-09-14T02:13:17.452Z,2.85
2022-09-14T02:18:26.613Z,2.85
2022-09-14T02:21:04.270Z,2.40
2022-09-14T02:23:38.068Z,2.50
2022-09-14T02:28:46.337Z,2.70
2022-09-14T02:31:28.297Z,2.75
2022-09-14T02:34:08.445Z,2.28
2022-09-14T02:36:50.236Z,2.25
2022-09-14T02:39:41.928Z,2.33
2022-09-14T02:42:26.762Z,2.55
2022-09-14T02:45:07.759Z,3.30
2022-09-14T02:47:55.518Z,2.53
2022-09-14T02:50:36.268Z,2.78
2022-09-14T02:53:15.907Z,2.58
2022-09-14T02:55:53.783Z,2.35
2022-09-14T02:58:35.872Z,2.75
2022-09-14T03:01:12.465Z,2.53
2022-09-14T03:03:47.812Z,2.30
2022-09-14T03:06:21.611Z,2.45
2022-09-14T03:11:29.072Z,2.63
2022-09-14T03:14:02.888Z,2.90
2022-09-14T03:19:12.510Z,2.43
2022-09-14T03:21:46.576Z,2.47
2022-09-14T03:24:20.353Z,1.67
2022-09-14T03:29:27.703Z,2.03
2022-09-14T03:34:36.447Z,2.40
2022-09-14T03:37:10.295Z,2.28
2022-09-14T03:39:44.341Z,2.10
2022-09-14T03:44:51.674Z,2.83
2022-09-14T03:50:00.511Z,2.73
2022-09-14T03:52:35.175Z,2.50
2022-09-14T03:55:10.954Z,2.20
2022-09-14T03:57:44.705Z,2.10
2022-09-14T04:00:18.943Z,2.55
2022-09-14T04:02:53.062Z,2.42
2022-09-14T04:05:28.320Z,2.38
2022-09-14T04:08:02.121Z,2.20
2022-09-14T04:13:09.451Z,1.90
2022-09-14T04:15:43.433Z,2.58
2022-09-14T04:18:17.270Z,2.60
2022-09-14T04:23:31.084Z,2.65
2022-09-14T04:26:11.994Z,2.38
2022-09-14T04:28:46.609Z,2.42
2022-09-14T04:31:20.536Z,2.33
2022-09-14T04:33:57.324Z,2.53
2022-09-14T04:36:32.886Z,2.63
2022-09-14T04:39:07.004Z,2.65
2022-09-14T04:41:40.989Z,2.40
2022-09-14T04:46:48.455Z,2.63
2022-09-14T04:49:22.339Z,2.42
2022-09-14T04:54:31.070Z,2.83
2022-09-14T04:59:38.481Z,2.70
2022-09-14T05:04:45.945Z,2.90
2022-09-14T05:09:54.674Z,3.45
2022-09-14T05:15:01.988Z,2.80
2022-09-14T05:20:10.445Z,2.78
2022-09-14T05:22:45.694Z,2.90
2022-09-14T05:25:19.748Z,2.80
2022-09-14T05:27:53.544Z,3.50
2022-09-14T05:33:00.840Z,2.60
2022-09-14T05:38:09.607Z,2.72
2022-09-14T05:40:43.527Z,2.53
2022-09-14T05:43:17.509Z,2.60
2022-09-14T05:48:24.871Z,3.40
2022-09-14T05:53:35.218Z,3.17
2022-09-14T05:56:11.333Z,2.92
2022-09-14T05:58:45.178Z,3.28
2022-09-14T06:06:28.918Z,5.20
2022-09-14T06:09:05.773Z,8.07
2022-09-14T06:11:39.911Z,11.05
2022-09-14T06:14:13.891Z,11.88
2022-09-14T06:19:21.467Z,11.52
2022-09-14T06:21:55.441Z,10.27
2022-09-14T06:24:30.993Z,11.13
2022-09-14T06:27:04.986Z,11.57
2022-09-14T06:29:38.899Z,11.73
2022-09-14T06:34:46.324Z,10.67
2022-09-14T06:37:20.212Z,10.90
2022-09-14T06:39:56.051Z,9.38
2022-09-14T06:42:31.597Z,10.88
2022-09-14T06:45:06.826Z,11.25
2022-09-14T06:47:40.738Z,11.10
2022-09-14T06:50:14.694Z,11.52
2022-09-14T06:55:23.415Z,10.13
2022-09-14T06:57:57.190Z,10.90
2022-09-14T07:03:04.751Z,8.95
2022-09-14T07:05:38.581Z,10.70
2022-09-14T07:10:57.485Z,10.55
2022-09-14T07:13:32.123Z,10.77
2022-09-14T07:16:06.800Z,10.25
2022-09-14T07:18:41.082Z,10.60
2022-09-14T07:21:17.038Z,10.25
2022-09-14T07:23:51.485Z,10.02
2022-09-14T07:26:28.144Z,8.90
2022-09-14T07:29:04.504Z,8.65
2022-09-14T07:31:41.872Z,8.27
2022-09-14T07:34:17.053Z,9.23
2022-09-14T07:36:50.891Z,8.80
2022-09-14T07:42:00.002Z,8.70
2022-09-14T07:44:33.815Z,8.30
2022-09-14T07:49:41.280Z,9.00
2022-09-14T07:52:15.197Z,9.10
2022-09-14T07:54:49.085Z,9.27
2022-09-14T08:02:54.980Z,8.97
2022-09-14T08:05:29.110Z,8.02
2022-09-14T08:08:03.247Z,7.88
2022-09-14T08:10:37.740Z,8.23
2022-09-14T08:13:13.444Z,8.02
2022-09-14T08:15:47.416Z,8.20
2022-09-14T08:18:21.258Z,9.43
2022-09-14T08:23:28.628Z,8.97
2022-09-14T08:28:41.211Z,9.20
2022-09-14T08:31:17.176Z,9.23
2022-09-14T08:33:52.936Z,8.73
2022-09-14T08:36:28.818Z,8.10
2022-09-14T08:39:03.097Z,7.82
2022-09-14T08:41:42.355Z,9.00
2022-09-14T08:44:22.552Z,7.90
2022-09-14T08:47:03.009Z,8.00
2022-09-14T08:49:48.438Z,8.05
2022-09-14T08:52:27.159Z,7.70
2022-09-14T08:55:02.780Z,8.27
2022-09-14T08:57:45.035Z,7.97
2022-09-14T09:00:24.650Z,8.25
2022-09-14T09:03:29.970Z,6.93
2022-09-14T09:06:15.652Z,7.60
2022-09-14T09:08:59.535Z,6.95
2022-09-14T09:11:39.358Z,6.68
2022-09-14T09:14:19.959Z,7.55
2022-09-14T09:16:58.509Z,7.30
2022-09-14T09:19:36.037Z,7.18
2022-09-14T09:22:16.380Z,6.80
2022-09-14T09:24:54.023Z,7.07
2022-09-14T09:27:29.104Z,6.50
2022-09-14T09:30:03.422Z,5.97
2022-09-14T09:32:40.665Z,5.75
2022-09-14T09:35:26.662Z,5.63
2022-09-14T09:38:15.377Z,5.68
2022-09-14T09:40:53.883Z,4.93
2022-09-14T09:43:48.457Z,4.72
2022-09-14T09:46:22.108Z,4.38
2022-09-14T09:48:58.582Z,4.53
2022-09-14T09:51:34.666Z,4.40
2022-09-14T09:54:20.533Z,4.25
2022-09-14T09:56:58.213Z,4.75
2022-09-14T09:59:35.962Z,4.57
2022-09-14T10:02:23.867Z,3.30
2022-09-14T10:05:01.774Z,3.97
2022-09-14T10:07:38.025Z,3.70
2022-09-14T10:10:14.319Z,3.17
2022-09-14T10:12:50.549Z,3.28
2022-09-14T10:15:27.099Z,3.03
2022-09-14T10:18:10.188Z,3.40
2022-09-14T10:20:48.225Z,3.00
2022-09-14T10:23:25.951Z,3.45
2022-09-14T10:26:24.113Z,3.38
2022-09-14T10:29:31.055Z,3.53
2022-09-14T10:32:16.024Z,2.90
2022-09-14T10:34:51.326Z,3.17
2022-09-14T10:37:33.953Z,3.72
2022-09-14T10:40:20.264Z,3.50
2022-09-14T10:43:09.221Z,2.60
2022-09-14T10:45:48.526Z,3.20
2022-09-14T10:48:51.947Z,2.97
2022-09-14T10:51:36.910Z,2.95
2022-09-14T10:54:24.212Z,2.95
2022-09-14T10:57:07.596Z,4.20
2022-09-14T10:59:50.007Z,3.95
2022-09-14T11:02:52.223Z,3.25
2022-09-14T11:05:30.382Z,3.30
2022-09-14T11:08:16.576Z,3.38
2022-09-14T11:11:09.366Z,2.78
2022-09-14T11:13:59.624Z,3.00
2022-09-14T11:16:50.779Z,3.17
2022-09-14T11:19:36.785Z,2.90
2022-09-14T11:22:20.415Z,3.10
2022-09-14T11:24:59.335Z,3.50
2022-09-14T11:27:41.289Z,3.53
2022-09-14T11:30:19.285Z,2.58
2022-09-14T11:32:57.515Z,2.65
2022-09-14T11:35:36.276Z,2.95
2022-09-14T11:38:16.052Z,3.15
2022-09-14T11:40:56.492Z,3.17
2022-09-14T11:43:38.405Z,2.75
2022-09-14T11:46:16.047Z,3.20
2022-09-14T11:48:55.328Z,2.53
2022-09-14T11:51:34.143Z,2.58
2022-09-14T11:54:16.798Z,3.20
2022-09-14T11:56:52.616Z,3.38
2022-09-14T11:59:50.613Z,2.70
2022-09-14T12:03:03.028Z,3.00
2022-09-14T12:05:37.976Z,2.83
2022-09-14T12:08:29.245Z,2.80
2022-09-14T12:11:25.879Z,2.75
2022-09-14T12:14:29.732Z,2.42
2022-09-14T12:20:49.311Z,2.65
2022-09-14T12:23:29.059Z,3.22
2022-09-14T12:26:26.595Z,2.95
2022-09-14T12:29:36.488Z,3.38
2022-09-14T12:32:43.556Z,4.25
2022-09-14T12:35:46.806Z,3.35
2022-09-14T12:39:06.843Z,3.42
2022-09-14T12:42:32.414Z,3.47
2022-09-14T12:45:49.022Z,3.40
2022-09-14T12:48:59.133Z,3.53
2022-09-14T12:51:45.980Z,2.22
2022-09-14T12:54:27.374Z,3.05
2022-09-14T12:57:15.274Z,3.03
2022-09-14T12:59:55.825Z,2.75
2022-09-14T13:03:14.873Z,3.10
2022-09-14T13:05:51.163Z,3.13
2022-09-14T13:08:26.012Z,2.70
2022-09-14T13:10:59.992Z,2.72
2022-09-14T13:13:34.767Z,3.13
2022-09-14T13:16:09.305Z,2.70
2022-09-14T13:18:43.281Z,3.20
2022-09-14T13:21:24.116Z,2.95
2022-09-14T13:23:58.184Z,2.33
2022-09-14T13:29:09.907Z,2.63
2022-09-14T13:31:46.721Z,2.15
2022-09-14T13:34:24.469Z,3.75
2022-09-14T13:37:00.007Z,2.42
2022-09-14T13:39:36.177Z,3.05
2022-09-14T13:42:11.478Z,2.70
2022-09-14T13:44:47.067Z,2.67
2022-09-14T13:47:23.614Z,5.32
2022-09-14T13:49:58.534Z,4.50
2022-09-14T13:55:44.968Z,4.18
2022-09-14T13:58:24.255Z,4.70
2022-09-14T14:01:00.482Z,5.43
2022-09-14T14:03:38.309Z,4.82
2022-09-14T14:06:27.301Z,3.75
2022-09-14T14:09:04.994Z,3.88
2022-09-14T14:11:41.306Z,4.38
2022-09-14T14:14:26.466Z,4.47
2022-09-14T14:17:23.592Z,3.92
2022-09-14T14:19:59.215Z,4.05
2022-09-14T14:22:35.934Z,3.00
2022-09-14T14:25:29.373Z,3.45
2022-09-14T14:28:04.759Z,3.90
2022-09-14T14:30:41.935Z,3.22
2022-09-14T14:33:18.753Z,3.25
2022-09-14T14:35:54.658Z,3.80
2022-09-14T14:38:28.510Z,3.13
2022-09-14T14:43:37.823Z,3.10
2022-09-14T14:46:11.860Z,3.17
2022-09-14T14:48:45.860Z,3.03
2022-09-14T14:51:19.895Z,3.45
2022-09-14T14:53:53.808Z,3.35
2022-09-14T14:56:29.824Z,3.75
2022-09-14T14:59:03.809Z,3.20
2022-09-14T15:01:37.777Z,3.70
2022-09-14T15:04:11.720Z,3.00
2022-09-14T15:06:47.520Z,2.85
2022-09-14T15:09:23.654Z,3.47
2022-09-14T15:11:59.019Z,3.00
2022-09-14T15:14:32.905Z,3.28
2022-09-14T15:19:40.469Z,3.13
2022-09-14T15:24:48.153Z,3.00
2022-09-14T15:29:57.484Z,3.05
2022-09-14T15:32:31.394Z,2.80
2022-09-14T15:37:38.907Z,3.17
2022-09-14T15:40:13.131Z,2.83
2022-09-14T15:42:48.481Z,3.00
2022-09-14T15:45:22.379Z,3.10
2022-09-14T15:47:56.508Z,3.20
2022-09-14T15:50:30.396Z,3.17
2022-09-14T15:55:41.024Z,3.60
2022-09-14T15:58:16.458Z,2.92
2022-09-14T16:00:50.944Z,3.28
2022-09-14T16:03:25.129Z,2.92
2022-09-14T16:06:01.740Z,3.03
2022-09-14T16:08:37.414Z,2.85
2022-09-14T16:11:11.785Z,2.63
2022-09-14T16:13:47.304Z,2.85
2022-09-14T16:16:22.467Z,2.50
2022-09-14T16:18:57.689Z,2.42
2022-09-14T16:21:32.015Z,3.47
2022-09-14T16:24:08.681Z,2.97
2022-09-14T16:26:43.737Z,2.97
2022-09-14T16:29:20.997Z,2.47
2022-09-14T16:31:55.669Z,2.95
2022-09-14T16:34:31.481Z,2.53
2022-09-14T16:37:05.496Z,2.55
2022-09-14T16:39:39.445Z,3.22
2022-09-14T16:42:13.674Z,3.08
2022-09-14T16:44:49.342Z,2.30
2022-09-14T16:47:25.841Z,2.80
2022-09-14T16:49:59.938Z,3.40
2022-09-14T16:52:34.258Z,2.97
2022-09-14T16:55:09.378Z,3.20
2022-09-14T16:57:43.531Z,3.03
2022-09-14T17:00:19.180Z,3.03
2022-09-14T17:02:54.258Z,3.22
2022-09-14T17:05:29.059Z,3.00
2022-09-14T17:08:04.173Z,2.67
2022-09-14T17:10:39.160Z,3.13
2022-09-14T17:13:13.814Z,3.45
2022-09-14T17:15:50.110Z,3.30
2022-09-14T17:18:24.987Z,3.17
2022-09-14T17:21:01.930Z,3.75
2022-09-14T17:23:36.360Z,3.00
2022-09-14T17:26:14.458Z,4.15
2022-09-14T17:29:43.564Z,3.53
2022-09-14T17:32:37.822Z,4.30
2022-09-14T17:35:12.344Z,4.18
2022-09-14T17:37:48.053Z,4.63
2022-09-14T17:40:22.854Z,4.93
2022-09-14T17:42:57.946Z,5.43
2022-09-14T17:45:33.769Z,5.25
2022-09-14T17:48:11.334Z,4.82
2022-09-14T17:50:46.639Z,5.60
2022-09-14T17:53:22.494Z,5.15
2022-09-14T17:56:05.137Z,5.53
2022-09-14T17:58:40.955Z,6.90
2022-09-14T18:01:18.942Z,5.75
2022-09-14T18:03:58.110Z,5.93
2022-09-14T18:06:35.413Z,6.28
2022-09-14T18:09:14.330Z,6.78
2022-09-14T18:11:51.275Z,5.43
2022-09-14T18:14:27.196Z,5.68
2022-09-14T18:17:02.591Z,5.45
2022-09-14T18:19:40.009Z,5.45
2022-09-14T18:22:17.562Z,5.90
2022-09-14T18:24:52.921Z,6.20
2022-09-14T18:27:28.158Z,5.45
2022-09-14T18:30:03.731Z,5.13
2022-09-14T18:32:39.038Z,5.63
2022-09-14T18:35:17.075Z,5.55
2022-09-14T18:37:52.670Z,5.95
2022-09-14T18:40:27.551Z,5.93
2022-09-14T18:43:02.902Z,5.72
2022-09-14T18:45:38.102Z,5.82
2022-09-14T18:48:13.928Z,5.03
2022-09-14T18:50:50.968Z,5.70
2022-09-14T18:53:26.174Z,5.75
2022-09-14T18:56:03.834Z,5.47
2022-09-14T18:58:40.561Z,5.75
2022-09-14T19:01:16.608Z,6.20
2022-09-14T19:03:51.820Z,5.38
2022-09-14T19:06:28.429Z,6.63
2022-09-14T19:09:03.215Z,5.78
2022-09-14T19:11:38.157Z,6.30
2022-09-14T19:14:15.972Z,7.35
2022-09-14T19:16:52.181Z,5.78
2022-09-14T19:19:27.117Z,6.65
2022-09-14T19:22:03.393Z,6.55
2022-09-14T19:24:38.036Z,6.80
2022-09-14T19:27:12.239Z,6.60
2022-09-14T19:29:46.330Z,7.10
2022-09-14T19:32:20.651Z,6.82
2022-09-14T19:34:54.714Z,7.38
2022-09-14T19:37:31.382Z,7.55
2022-09-14T19:40:05.967Z,7.05
2022-09-14T19:42:39.891Z,6.50
2022-09-14T19:45:16.613Z,6.65
2022-09-14T19:47:50.462Z,7.13
2022-09-14T19:50:24.491Z,7.13
2022-09-14T19:53:03.897Z,6.75
2022-09-14T19:55:38.535Z,7.15
2022-09-14T19:58:12.378Z,7.45
2022-09-14T20:03:19.856Z,7.07
2022-09-14T20:06:01.157Z,6.95
2022-09-14T20:08:37.524Z,6.82
2022-09-14T20:11:15.631Z,7.53
2022-09-14T20:13:55.500Z,7.25
2022-09-14T20:16:31.251Z,8.05
2022-09-14T20:19:07.654Z,7.30
2022-09-14T20:21:43.432Z,8.30
2022-09-14T20:24:21.029Z,7.40
2022-09-14T20:26:59.153Z,8.82
2022-09-14T20:29:35.738Z,8.10
2022-09-14T20:32:09.967Z,9.55
2022-09-14T20:34:46.301Z,8.75
2022-09-14T20:37:22.784Z,8.73
2022-09-14T20:39:59.212Z,8.70
2022-09-14T20:42:34.945Z,9.27
2022-09-14T20:45:13.402Z,9.13
2022-09-14T20:47:47.753Z,7.70
2022-09-14T20:50:21.740Z,8.90
2022-09-14T20:52:55.712Z,9.20
2022-09-14T20:55:34.160Z,8.40
2022-09-14T20:58:08.054Z,8.77
2022-09-14T21:00:42.577Z,9.20
2022-09-14T21:03:16.523Z,8.05
2022-09-14T21:05:54.275Z,8.25
2022-09-14T21:08:28.266Z,8.52
2022-09-14T21:11:07.337Z,7.28
2022-09-14T21:13:41.573Z,7.60
2022-09-14T21:16:17.358Z,7.82
2022-09-14T21:18:56.350Z,8.00
2022-09-14T21:21:30.948Z,7.32
2022-09-14T21:24:07.219Z,8.32
2022-09-14T21:26:44.257Z,8.30
2022-09-14T21:29:20.984Z,8.05
2022-09-14T21:31:55.168Z,7.65
2022-09-14T21:34:29.200Z,7.28
2022-09-14T21:37:03.390Z,8.43
2022-09-14T21:39:38.211Z,7.18
2022-09-14T21:42:13.472Z,7.07
2022-09-14T21:44:47.357Z,7.60
2022-09-14T21:47:21.891Z,6.70
2022-09-14T21:49:55.948Z,6.47
2022-09-14T21:52:30.054Z,7.82
2022-09-14T21:55:04.019Z,7.80
2022-09-14T21:57:39.542Z,7.05
2022-09-14T22:00:14.217Z,6.53
2022-09-14T22:02:48.177Z,7.07
2022-09-14T22:05:22.033Z,7.05
2022-09-14T22:07:55.893Z,6.28
2022-09-14T22:13:05.053Z,6.70
2022-09-14T22:15:38.940Z,6.72
2022-09-14T22:18:12.913Z,5.78
2022-09-14T22:20:46.786Z,7.03
2022-09-14T22:25:54.580Z,6.13
2022-09-14T22:28:30.374Z,6.95
2022-09-14T22:31:04.353Z,6.72
2022-09-14T22:33:38.432Z,7.05
2022-09-14T22:36:13.268Z,7.25
2022-09-14T22:38:47.781Z,7.22
2022-09-14T22:41:22.796Z,6.38
2022-09-14T22:43:58.386Z,6.97
2022-09-14T22:46:32.283Z,7.13
2022-09-14T22:49:06.184Z,6.22
2022-09-14T22:51:40.270Z,6.82
2022-09-14T22:54:14.411Z,6.88
2022-09-14T22:56:48.296Z,7.72
2022-09-14T23:01:57.134Z,6.88
2022-09-14T23:04:31.308Z,7.78
2022-09-14T23:07:06.876Z,6.47
2022-09-14T23:09:41.073Z,7.40
2022-09-14T23:12:14.893Z,7.07
2022-09-14T23:17:24.064Z,6.82
2022-09-14T23:19:57.900Z,7.20
2022-09-14T23:25:05.984Z,7.07
2022-09-14T23:27:39.813Z,7.20
2022-09-14T23:30:15.905Z,7.13
2022-09-14T23:32:49.752Z,7.10
2022-09-14T23:37:57.601Z,6.40
2022-09-14T23:40:31.495Z,7.00
2022-09-14T23:43:05.361Z,6.53
2022-09-14T23:48:14.553Z,6.80
2022-09-14T23:50:57.045Z,6.28
2022-09-14T23:53:31.656Z,6.55
2022-09-14T23:56:06.561Z,6.65
2022-09-14T23:58:41.553Z,5.93
